createdAt,value
2022-08-24T00:00:21.926Z,20.05
2022-08-24T00:01:21.925Z,20.03
2022-08-24T00:02:22.062Z,20.03
2022-08-24T00:03:22.069Z,20.02
2022-08-24T00:04:21.888Z,20.00
2022-08-24T00:05:21.889Z,19.97
2022-08-24T00:06:21.859Z,19.97
2022-08-24T00:07:27.992Z,19.94
2022-08-24T00:08:21.872Z,19.91
2022-08-24T00:09:21.829Z,19.91
2022-08-24T00:10:21.821Z,19.93
2022-08-24T00:11:21.818Z,19.91
2022-08-24T00:12:21.799Z,19.91
2022-08-24T00:13:21.815Z,19.90
2022-08-24T00:14:21.784Z,19.90
2022-08-24T00:15:21.775Z,19.88
2022-08-24T00:16:21.825Z,19.87
2022-08-24T00:17:21.758Z,19.87
2022-08-24T00:18:21.750Z,19.86
2022-08-24T00:19:21.727Z,19.83
2022-08-24T00:20:21.713Z,19.84
2022-08-24T00:21:21.692Z,19.83
2022-08-24T00:22:21.684Z,19.83
2022-08-24T00:23:21.709Z,19.83
2022-08-24T00:24:21.666Z,19.79
2022-08-24T00:25:21.665Z,19.76
2022-08-24T00:26:29.050Z,19.76
2022-08-24T00:27:21.648Z,19.73
2022-08-24T00:28:21.638Z,19.70
2022-08-24T00:29:21.620Z,19.68
2022-08-24T00:30:21.610Z,19.66
2022-08-24T00:31:21.642Z,19.63
2022-08-24T00:32:21.584Z,19.63
2022-08-24T00:33:21.595Z,19.65
2022-08-24T00:34:21.567Z,19.65
2022-08-24T00:35:21.546Z,19.63
2022-08-24T00:36:21.540Z,19.61
2022-08-24T00:37:21.522Z,19.63
2022-08-24T00:38:21.530Z,19.61
2022-08-24T00:39:21.500Z,19.60
2022-08-24T00:40:21.542Z,19.60
2022-08-24T00:41:21.493Z,19.57
2022-08-24T00:42:21.472Z,19.55
2022-08-24T00:43:21.481Z,19.55
2022-08-24T00:44:21.463Z,19.55
2022-08-24T00:45:21.458Z,19.55
2022-08-24T00:46:21.421Z,19.54
2022-08-24T00:47:21.430Z,19.54
2022-08-24T00:48:21.423Z,19.54
2022-08-24T00:49:21.394Z,19.53
2022-08-24T00:50:21.382Z,19.51
2022-08-24T00:51:21.374Z,19.48
2022-08-24T00:52:21.369Z,19.48
2022-08-24T00:53:21.377Z,19.48
2022-08-24T00:54:21.348Z,19.46
2022-08-24T00:55:21.340Z,19.47
2022-08-24T00:56:21.319Z,19.46
2022-08-24T00:57:21.312Z,19.42
2022-08-24T00:58:21.770Z,19.43
2022-08-24T00:59:21.289Z,19.43
2022-08-24T01:00:21.293Z,19.42
2022-08-24T01:01:21.305Z,19.42
2022-08-24T01:02:21.313Z,19.40
2022-08-24T01:03:21.266Z,19.39
2022-08-24T01:04:21.226Z,19.38
2022-08-24T01:05:21.223Z,19.36
2022-08-24T01:06:21.218Z,19.36
2022-08-24T01:07:21.197Z,19.35
2022-08-24T01:08:21.223Z,19.33
2022-08-24T01:09:21.185Z,19.35
2022-08-24T01:10:21.174Z,19.32
2022-08-24T01:11:21.153Z,19.31
2022-08-24T01:12:21.149Z,19.29
2022-08-24T01:13:21.139Z,19.29
2022-08-24T01:14:21.144Z,19.28
2022-08-24T01:15:21.116Z,19.25
2022-08-24T01:16:21.167Z,19.25
2022-08-24T01:17:21.089Z,19.24
2022-08-24T01:18:21.078Z,19.23
2022-08-24T01:19:21.084Z,19.23
2022-08-24T01:20:21.068Z,19.23
2022-08-24T01:21:21.050Z,19.21
2022-08-24T01:22:21.035Z,19.21
2022-08-24T01:23:21.034Z,19.21
2022-08-24T01:24:21.028Z,19.20
2022-08-24T01:25:21.000Z,19.20
2022-08-24T01:26:21.011Z,19.18
2022-08-24T01:27:28.238Z,19.17
2022-08-24T01:28:23.772Z,19.17
2022-08-24T01:29:20.980Z,19.17
2022-08-24T01:30:22.351Z,19.15
2022-08-24T01:31:20.981Z,19.13
2022-08-24T01:32:20.945Z,19.11
2022-08-24T01:33:20.914Z,19.10
2022-08-24T01:34:20.928Z,19.08
2022-08-24T01:35:20.901Z,19.08
2022-08-24T01:36:20.887Z,19.05
2022-08-24T01:37:20.883Z,19.01
2022-08-24T01:38:20.857Z,18.99
2022-08-24T01:39:20.871Z,18.99
2022-08-24T01:40:20.911Z,18.98
2022-08-24T01:41:20.833Z,18.98
2022-08-24T01:42:20.820Z,18.97
2022-08-24T01:43:20.806Z,18.95
2022-08-24T01:44:20.832Z,18.95
2022-08-24T01:45:20.800Z,18.95
2022-08-24T01:46:20.820Z,18.95
2022-08-24T01:47:20.776Z,18.94
2022-08-24T01:48:22.901Z,18.92
2022-08-24T01:49:20.765Z,18.90
2022-08-24T01:50:20.742Z,18.87
2022-08-24T01:51:20.730Z,18.90
2022-08-24T01:52:20.713Z,18.90
2022-08-24T01:53:20.708Z,18.90
2022-08-24T01:54:20.703Z,18.86
2022-08-24T01:55:22.800Z,18.86
2022-08-24T01:56:20.668Z,18.86
2022-08-24T01:57:20.665Z,18.86
2022-08-24T01:58:20.648Z,18.86
2022-08-24T01:59:20.648Z,18.84
2022-08-24T02:00:20.618Z,18.86
2022-08-24T02:01:20.667Z,18.87
2022-08-24T02:02:27.227Z,18.86
2022-08-24T02:03:20.660Z,18.86
2022-08-24T02:04:20.604Z,18.87
2022-08-24T02:05:20.571Z,18.90
2022-08-24T02:06:20.567Z,18.91
2022-08-24T02:07:20.553Z,18.90
2022-08-24T02:08:20.537Z,18.90
2022-08-24T02:09:20.579Z,18.87
2022-08-24T02:10:20.519Z,18.90
2022-08-24T02:11:20.520Z,18.91
2022-08-24T02:12:20.493Z,18.87
2022-08-24T02:13:20.516Z,18.86
2022-08-24T02:14:20.495Z,18.87
2022-08-24T02:15:20.492Z,18.84
2022-08-24T02:16:20.517Z,18.82
2022-08-24T02:17:20.457Z,18.80
2022-08-24T02:18:20.463Z,18.80
2022-08-24T02:19:20.442Z,18.77
2022-08-24T02:20:20.473Z,18.77
2022-08-24T02:21:20.407Z,18.76
2022-08-24T02:22:20.415Z,18.79
2022-08-24T02:23:20.402Z,18.79
2022-08-24T02:24:20.390Z,18.76
2022-08-24T02:25:20.418Z,18.74
2022-08-24T02:26:20.350Z,18.73
2022-08-24T02:27:20.339Z,18.72
2022-08-24T02:28:20.339Z,18.68
2022-08-24T02:29:20.343Z,18.68
2022-08-24T02:30:20.393Z,18.68
2022-08-24T02:31:20.385Z,18.67
2022-08-24T02:32:20.281Z,18.67
2022-08-24T02:33:20.267Z,18.65
2022-08-24T02:34:20.302Z,18.64
2022-08-24T02:35:20.276Z,18.61
2022-08-24T02:36:25.951Z,18.59
2022-08-24T02:37:20.251Z,18.61
2022-08-24T02:38:20.218Z,18.59
2022-08-24T02:39:20.229Z,18.59
2022-08-24T02:40:20.272Z,18.58
2022-08-24T02:41:20.195Z,18.59
2022-08-24T02:42:20.178Z,18.59
2022-08-24T02:43:20.194Z,18.58
2022-08-24T02:44:20.175Z,18.58
2022-08-24T02:45:20.145Z,18.57
2022-08-24T02:46:20.188Z,18.57
2022-08-24T02:47:20.131Z,18.57
2022-08-24T02:48:20.103Z,18.57
2022-08-24T02:49:20.137Z,18.58
2022-08-24T02:50:20.101Z,18.58
2022-08-24T02:51:20.088Z,18.57
2022-08-24T02:52:20.087Z,18.58
2022-08-24T02:53:20.063Z,18.58
2022-08-24T02:54:20.077Z,18.58
2022-08-24T02:55:20.599Z,18.59
2022-08-24T02:56:20.030Z,18.57
2022-08-24T02:57:20.013Z,18.57
2022-08-24T02:58:20.036Z,18.57
2022-08-24T02:59:20.013Z,18.58
2022-08-24T03:00:19.977Z,18.58
2022-08-24T03:01:24.206Z,18.59
2022-08-24T03:02:20.024Z,18.58
2022-08-24T03:03:19.951Z,18.58
2022-08-24T03:04:19.967Z,18.57
2022-08-24T03:05:19.944Z,18.55
2022-08-24T03:06:19.943Z,18.52
2022-08-24T03:07:19.912Z,18.50
2022-08-24T03:08:19.915Z,18.52
2022-08-24T03:09:19.912Z,18.49
2022-08-24T03:10:19.877Z,18.47
2022-08-24T03:11:19.882Z,18.47
2022-08-24T03:12:19.881Z,18.46
2022-08-24T03:13:19.844Z,18.44
2022-08-24T03:14:19.874Z,18.44
2022-08-24T03:15:19.817Z,18.43
2022-08-24T03:16:19.896Z,18.42
2022-08-24T03:17:19.829Z,18.42
2022-08-24T03:18:19.790Z,18.40
2022-08-24T03:19:19.823Z,18.40
2022-08-24T03:20:19.763Z,18.40
2022-08-24T03:21:19.761Z,18.39
2022-08-24T03:22:19.763Z,18.40
2022-08-24T03:23:19.873Z,18.42
2022-08-24T03:24:19.756Z,18.40
2022-08-24T03:25:19.721Z,18.40
2022-08-24T03:26:19.743Z,18.40
2022-08-24T03:27:19.686Z,18.39
2022-08-24T03:28:19.694Z,18.36
2022-08-24T03:29:19.700Z,18.36
2022-08-24T03:30:19.716Z,18.34
2022-08-24T03:31:19.670Z,18.36
2022-08-24T03:32:19.638Z,18.34
2022-08-24T03:33:19.661Z,18.34
2022-08-24T03:34:19.664Z,18.34
2022-08-24T03:35:19.654Z,18.31
2022-08-24T03:36:19.672Z,18.31
2022-08-24T03:37:19.586Z,18.29
2022-08-24T03:38:19.599Z,18.31
2022-08-24T03:39:19.650Z,18.31
2022-08-24T03:40:22.269Z,18.31
2022-08-24T03:41:19.556Z,18.29
2022-08-24T03:42:19.545Z,18.31
2022-08-24T03:43:19.574Z,18.31
2022-08-24T03:44:23.053Z,18.34
2022-08-24T03:45:19.498Z,18.33
2022-08-24T03:46:19.537Z,18.34
2022-08-24T03:47:19.478Z,18.34
2022-08-24T03:48:19.468Z,18.34
2022-08-24T03:49:19.490Z,18.36
2022-08-24T03:50:19.471Z,18.34
2022-08-24T03:51:19.489Z,18.33
2022-08-24T03:52:19.431Z,18.31
2022-08-24T03:53:19.410Z,18.29
2022-08-24T03:54:19.446Z,18.31
2022-08-24T03:55:19.392Z,18.28
2022-08-24T03:56:19.366Z,18.29
2022-08-24T03:57:19.421Z,18.28
2022-08-24T03:58:19.343Z,18.29
2022-08-24T03:59:20.196Z,18.28
2022-08-24T04:00:19.342Z,18.27
2022-08-24T04:01:19.376Z,18.28
2022-08-24T04:02:19.371Z,18.28
2022-08-24T04:03:19.305Z,18.28
2022-08-24T04:04:19.292Z,18.28
2022-08-24T04:05:19.293Z,18.25
2022-08-24T04:06:19.272Z,18.28
2022-08-24T04:07:19.259Z,18.27
2022-08-24T04:08:19.243Z,18.27
2022-08-24T04:09:19.226Z,18.27
2022-08-24T04:10:19.239Z,18.28
2022-08-24T04:11:19.209Z,18.28
2022-08-24T04:12:19.189Z,18.28
2022-08-24T04:13:19.180Z,18.28
2022-08-24T04:14:27.100Z,18.25
2022-08-24T04:15:19.196Z,18.25
2022-08-24T04:16:19.251Z,18.24
2022-08-24T04:17:19.163Z,18.27
2022-08-24T04:18:19.152Z,18.25
2022-08-24T04:19:19.132Z,18.25
2022-08-24T04:20:19.152Z,18.25
2022-08-24T04:21:19.118Z,18.25
2022-08-24T04:22:19.099Z,18.24
2022-08-24T04:23:19.078Z,18.24
2022-08-24T04:24:19.075Z,18.25
2022-08-24T04:25:22.973Z,18.22
2022-08-24T04:26:34.162Z,18.22
2022-08-24T04:27:19.039Z,18.22
2022-08-24T04:28:19.011Z,18.24
2022-08-24T04:29:19.012Z,18.24
2022-08-24T04:30:19.014Z,18.25
2022-08-24T04:31:19.043Z,18.24
2022-08-24T04:32:18.972Z,18.27
2022-08-24T04:33:18.963Z,18.27
2022-08-24T04:34:18.959Z,18.28
2022-08-24T04:35:18.958Z,18.28
2022-08-24T04:36:18.922Z,18.28
2022-08-24T04:37:18.926Z,18.29
2022-08-24T04:38:18.942Z,18.28
2022-08-24T04:39:18.908Z,18.29
2022-08-24T04:40:19.334Z,18.33
2022-08-24T04:41:18.888Z,18.31
2022-08-24T04:42:18.869Z,18.33
2022-08-24T04:43:19.987Z,18.34
2022-08-24T04:44:18.853Z,18.34
2022-08-24T04:45:18.869Z,18.37
2022-08-24T04:46:18.841Z,18.39
2022-08-24T04:47:18.823Z,18.37
2022-08-24T04:48:18.801Z,18.37
2022-08-24T04:49:18.801Z,18.37
2022-08-24T04:50:18.792Z,18.37
2022-08-24T04:51:18.848Z,18.37
2022-08-24T04:52:18.768Z,18.37
2022-08-24T04:53:18.750Z,18.37
2022-08-24T04:54:18.752Z,18.39
2022-08-24T04:55:18.782Z,18.37
2022-08-24T04:56:18.723Z,18.39
2022-08-24T04:57:18.722Z,18.37
2022-08-24T04:58:18.688Z,18.37
2022-08-24T04:59:18.691Z,18.39
2022-08-24T05:00:18.704Z,18.37
2022-08-24T05:01:18.785Z,18.39
2022-08-24T05:02:18.735Z,18.37
2022-08-24T05:03:19.252Z,18.37
2022-08-24T05:04:18.681Z,18.37
2022-08-24T05:05:18.641Z,18.39
2022-08-24T05:06:18.604Z,18.42
2022-08-24T05:07:18.615Z,18.43
2022-08-24T05:08:18.585Z,18.43
2022-08-24T05:09:18.576Z,18.42
2022-08-24T05:10:18.588Z,18.44
2022-08-24T05:11:18.554Z,18.46
2022-08-24T05:12:18.536Z,18.47
2022-08-24T05:13:18.522Z,18.49
2022-08-24T05:14:18.545Z,18.50
2022-08-24T05:15:18.543Z,18.50
2022-08-24T05:16:18.576Z,18.52
2022-08-24T05:17:18.502Z,18.54
2022-08-24T05:18:18.469Z,18.50
2022-08-24T05:19:18.484Z,18.50
2022-08-24T05:20:18.464Z,18.52
2022-08-24T05:21:18.433Z,18.50
2022-08-24T05:22:18.442Z,18.50
2022-08-24T05:23:18.434Z,18.52
2022-08-24T05:24:18.435Z,18.52
2022-08-24T05:25:18.413Z,18.54
2022-08-24T05:26:18.382Z,18.57
2022-08-24T05:27:19.110Z,18.59
2022-08-24T05:28:18.378Z,18.59
2022-08-24T05:29:18.380Z,18.58
2022-08-24T05:30:18.378Z,18.58
2022-08-24T05:31:18.381Z,18.59
2022-08-24T05:32:18.376Z,18.58
2022-08-24T05:33:18.337Z,18.59
2022-08-24T05:34:18.289Z,18.59
2022-08-24T05:35:18.314Z,18.61
2022-08-24T05:36:18.283Z,18.61
2022-08-24T05:37:18.261Z,18.62
2022-08-24T05:38:18.278Z,18.64
2022-08-24T05:39:18.261Z,18.65
2022-08-24T05:40:18.354Z,18.64
2022-08-24T05:41:18.272Z,18.65
2022-08-24T05:42:18.268Z,18.65
2022-08-24T05:43:18.204Z,18.67
2022-08-24T05:44:18.204Z,18.68
2022-08-24T05:45:18.235Z,18.68
2022-08-24T05:46:18.209Z,18.68
2022-08-24T05:47:18.187Z,18.72
2022-08-24T05:48:18.143Z,18.76
2022-08-24T05:49:18.133Z,18.79
2022-08-24T05:50:18.201Z,18.82
2022-08-24T05:51:18.145Z,18.83
2022-08-24T05:52:18.697Z,18.83
2022-08-24T05:53:18.089Z,18.90
2022-08-24T05:54:18.081Z,18.92
2022-08-24T05:55:18.100Z,18.94
2022-08-24T05:56:18.066Z,18.98
2022-08-24T05:57:18.054Z,18.99
2022-08-24T05:58:22.981Z,18.99
2022-08-24T05:59:18.078Z,19.01
2022-08-24T06:00:18.047Z,18.99
2022-08-24T06:01:18.056Z,19.02
2022-08-24T06:02:18.040Z,19.02
2022-08-24T06:03:18.115Z,19.02
2022-08-24T06:04:17.971Z,19.01
2022-08-24T06:05:17.991Z,19.05
2022-08-24T06:06:17.957Z,19.10
2022-08-24T06:07:18.056Z,19.13
2022-08-24T06:08:17.940Z,19.17
2022-08-24T06:09:17.919Z,19.18
2022-08-24T06:10:36.011Z,19.20
2022-08-24T06:11:17.917Z,19.20
2022-08-24T06:12:17.915Z,19.21
2022-08-24T06:13:17.871Z,19.23
2022-08-24T06:14:17.893Z,19.23
2022-08-24T06:15:17.870Z,19.24
2022-08-24T06:16:21.952Z,19.28
2022-08-24T06:17:18.009Z,19.28
2022-08-24T06:18:17.943Z,19.29
2022-08-24T06:19:17.836Z,19.29
2022-08-24T06:20:17.834Z,19.32
2022-08-24T06:21:17.784Z,19.33
2022-08-24T06:22:17.773Z,19.36
2022-08-24T06:23:17.807Z,19.35
2022-08-24T06:24:17.775Z,19.35
2022-08-24T06:25:17.760Z,19.38
2022-08-24T06:26:22.574Z,19.39
2022-08-24T06:27:17.723Z,19.42
2022-08-24T06:28:17.711Z,19.46
2022-08-24T06:29:17.707Z,19.48
2022-08-24T06:30:17.714Z,19.53
2022-08-24T06:31:17.714Z,19.53
2022-08-24T06:32:17.685Z,19.54
2022-08-24T06:33:17.670Z,19.58
2022-08-24T06:34:17.726Z,19.63
2022-08-24T06:35:17.665Z,19.65
2022-08-24T06:36:17.625Z,19.68
2022-08-24T06:37:17.635Z,19.69
2022-08-24T06:38:17.632Z,19.75
2022-08-24T06:39:17.593Z,19.79
2022-08-24T06:40:17.669Z,19.80
2022-08-24T06:41:17.571Z,19.87
2022-08-24T06:42:17.560Z,19.93
2022-08-24T06:43:17.548Z,19.95
2022-08-24T06:44:17.576Z,20.02
2022-08-24T06:45:17.557Z,20.06
2022-08-24T06:46:22.082Z,20.12
2022-08-24T06:47:17.512Z,20.18
2022-08-24T06:48:17.482Z,20.21
2022-08-24T06:49:17.506Z,20.27
2022-08-24T06:50:17.557Z,20.30
2022-08-24T06:51:17.468Z,20.28
2022-08-24T06:52:17.457Z,20.33
2022-08-24T06:53:17.429Z,20.38
2022-08-24T06:54:17.423Z,20.42
2022-08-24T06:55:17.450Z,20.42
2022-08-24T06:56:17.402Z,20.46
2022-08-24T06:57:17.441Z,20.46
2022-08-24T06:58:17.384Z,20.46
2022-08-24T06:59:17.370Z,20.47
2022-08-24T07:00:17.395Z,20.50
2022-08-24T07:01:17.383Z,20.49
2022-08-24T07:02:17.367Z,20.49
2022-08-24T07:03:17.377Z,20.47
2022-08-24T07:04:17.323Z,20.51
2022-08-24T07:05:17.330Z,20.58
2022-08-24T07:06:17.313Z,20.65
2022-08-24T07:07:17.291Z,20.71
2022-08-24T07:08:17.288Z,20.77
2022-08-24T07:09:17.269Z,20.81
2022-08-24T07:10:17.265Z,20.84
2022-08-24T07:11:17.259Z,20.86
2022-08-24T07:12:17.234Z,20.87
2022-08-24T07:13:17.250Z,20.86
2022-08-24T07:14:17.253Z,20.87
2022-08-24T07:15:17.269Z,20.89
2022-08-24T07:16:17.230Z,20.96
2022-08-24T07:17:17.204Z,21.04
2022-08-24T07:18:17.188Z,21.09
2022-08-24T07:19:17.194Z,21.16
2022-08-24T07:20:17.183Z,21.19
2022-08-24T07:21:17.836Z,21.20
2022-08-24T07:22:17.122Z,21.20
2022-08-24T07:23:17.134Z,21.24
2022-08-24T07:24:17.097Z,21.27
2022-08-24T07:25:17.107Z,21.30
2022-08-24T07:26:21.242Z,21.34
2022-08-24T07:27:17.084Z,21.35
2022-08-24T07:28:17.078Z,21.38
2022-08-24T07:29:45.726Z,21.41
2022-08-24T07:30:26.831Z,21.41
2022-08-24T07:31:17.089Z,21.42
2022-08-24T07:32:17.010Z,21.44
2022-08-24T07:33:17.003Z,21.54
2022-08-24T07:34:16.986Z,21.61
2022-08-24T07:35:17.004Z,21.71
2022-08-24T07:36:22.484Z,21.81
2022-08-24T07:37:16.964Z,21.91
2022-08-24T07:38:16.978Z,21.94
2022-08-24T07:39:16.947Z,21.99
2022-08-24T07:40:17.009Z,22.02
2022-08-24T07:42:23.219Z,22.09
2022-08-24T07:43:16.891Z,22.13
2022-08-24T07:44:16.878Z,22.13
2022-08-24T07:45:16.887Z,22.13
2022-08-24T07:46:16.919Z,22.16
2022-08-24T07:48:16.837Z,22.22
2022-08-24T07:49:33.210Z,22.27
2022-08-24T07:50:16.841Z,22.28
2022-08-24T07:51:16.886Z,22.31
2022-08-24T07:52:16.791Z,22.38
2022-08-24T07:53:20.801Z,22.47
2022-08-24T07:54:16.804Z,22.53
2022-08-24T07:55:16.783Z,22.60
2022-08-24T07:56:16.745Z,22.65
2022-08-24T07:57:16.802Z,22.68
2022-08-24T07:58:16.732Z,22.71
2022-08-24T07:59:16.735Z,22.69
2022-08-24T08:00:16.803Z,22.67
2022-08-24T08:01:16.755Z,22.68
2022-08-24T08:02:22.723Z,22.67
2022-08-24T08:03:16.732Z,22.68
2022-08-24T08:04:16.653Z,22.71
2022-08-24T08:05:16.663Z,22.75
2022-08-24T08:06:16.630Z,22.77
2022-08-24T08:07:16.629Z,22.80
2022-08-24T08:08:16.612Z,22.86
2022-08-24T08:09:16.610Z,22.89
2022-08-24T08:10:16.601Z,22.93
2022-08-24T08:11:16.581Z,22.94
2022-08-24T08:12:16.704Z,22.97
2022-08-24T08:13:16.563Z,22.97
2022-08-24T08:14:16.551Z,23.01
2022-08-24T08:15:16.555Z,23.04
2022-08-24T08:16:16.590Z,23.07
2022-08-24T08:17:16.516Z,23.09
2022-08-24T08:18:16.659Z,23.20
2022-08-24T08:19:16.500Z,23.27
2022-08-24T08:20:18.786Z,23.32
2022-08-24T08:21:16.474Z,23.40
2022-08-24T08:22:16.463Z,23.42
2022-08-24T08:23:16.462Z,23.47
2022-08-24T08:24:16.440Z,23.50
2022-08-24T08:25:16.451Z,23.53
2022-08-24T08:26:16.428Z,23.60
2022-08-24T08:27:16.416Z,23.70
2022-08-24T08:28:25.507Z,23.79
2022-08-24T08:29:16.405Z,23.85
2022-08-24T08:30:16.391Z,23.82
2022-08-24T08:31:16.420Z,23.83
2022-08-24T08:32:16.362Z,23.89
2022-08-24T08:33:16.407Z,23.90
2022-08-24T08:34:16.335Z,23.95
2022-08-24T08:35:16.343Z,24.01
2022-08-24T08:36:16.313Z,24.07
2022-08-24T08:37:16.306Z,24.16
2022-08-24T08:38:16.292Z,24.20
2022-08-24T08:39:16.283Z,24.23
2022-08-24T08:40:16.319Z,24.29
2022-08-24T08:41:16.267Z,24.37
2022-08-24T08:42:16.252Z,24.41
2022-08-24T08:43:16.236Z,24.44
2022-08-24T08:44:16.236Z,24.50
2022-08-24T08:45:16.241Z,24.56
2022-08-24T08:46:16.315Z,24.59
2022-08-24T08:47:16.201Z,24.61
2022-08-24T08:48:16.187Z,24.67
2022-08-24T08:49:16.184Z,24.69
2022-08-24T08:50:16.178Z,24.73
2022-08-24T08:51:16.167Z,24.73
2022-08-24T08:52:16.144Z,24.73
2022-08-24T08:53:16.133Z,24.76
2022-08-24T08:54:16.126Z,24.75
2022-08-24T08:55:16.114Z,24.75
2022-08-24T08:56:16.125Z,24.67
2022-08-24T08:57:17.372Z,24.73
2022-08-24T08:58:16.083Z,24.85
2022-08-24T08:59:16.069Z,24.94
2022-08-24T09:00:16.088Z,25.01
2022-08-24T09:01:16.138Z,25.01
2022-08-24T09:02:16.032Z,25.05
2022-08-24T09:03:16.032Z,25.06
2022-08-24T09:04:21.135Z,25.02
2022-08-24T09:05:16.017Z,25.06
2022-08-24T09:06:16.004Z,25.05
2022-08-24T09:07:15.983Z,25.06
2022-08-24T09:08:15.968Z,25.05
2022-08-24T09:09:15.961Z,25.09
2022-08-24T09:10:15.947Z,25.13
2022-08-24T09:11:15.955Z,25.20
2022-08-24T09:12:15.923Z,25.28
2022-08-24T09:13:15.923Z,25.31
2022-08-24T09:14:15.906Z,25.39
2022-08-24T09:15:15.894Z,25.44
2022-08-24T09:16:16.772Z,25.49
2022-08-24T09:17:15.900Z,25.47
2022-08-24T09:18:15.862Z,25.52
2022-08-24T09:19:15.861Z,25.57
2022-08-24T09:20:15.846Z,25.57
2022-08-24T09:21:15.848Z,25.54
2022-08-24T09:22:15.810Z,25.54
2022-08-24T09:23:15.811Z,25.62
2022-08-24T09:24:15.804Z,25.68
2022-08-24T09:25:15.788Z,25.77
2022-08-24T09:26:18.969Z,25.77
2022-08-24T09:27:15.775Z,25.77
2022-08-24T09:28:15.750Z,25.87
2022-08-24T09:29:15.751Z,25.94
2022-08-24T09:30:15.735Z,25.98
2022-08-24T09:31:16.003Z,26.02
2022-08-24T09:32:17.728Z,26.09
2022-08-24T09:33:15.710Z,26.20
2022-08-24T09:34:15.690Z,26.25
2022-08-24T09:35:26.433Z,26.28
2022-08-24T09:36:15.696Z,26.29
2022-08-24T09:37:15.660Z,26.29
2022-08-24T09:38:15.645Z,26.29
2022-08-24T09:39:15.633Z,26.36
2022-08-24T09:40:15.692Z,26.37
2022-08-24T09:41:15.631Z,26.39
2022-08-24T09:42:15.610Z,26.46
2022-08-24T09:43:15.596Z,26.49
2022-08-24T09:44:15.589Z,26.54
2022-08-24T09:45:15.584Z,26.58
2022-08-24T09:46:15.644Z,26.61
2022-08-24T09:47:15.562Z,26.67
2022-08-24T09:48:15.567Z,26.72
2022-08-24T09:49:15.538Z,26.74
2022-08-24T09:50:15.523Z,26.79
2022-08-24T09:51:15.529Z,26.74
2022-08-24T09:52:15.510Z,26.80
2022-08-24T09:53:15.494Z,26.87
2022-08-24T09:54:15.474Z,27.02
2022-08-24T09:55:15.505Z,27.06
2022-08-24T09:56:15.477Z,27.14
2022-08-24T09:57:19.454Z,27.14
2022-08-24T09:58:15.431Z,27.19
2022-08-24T09:59:15.434Z,27.17
2022-08-24T10:00:15.436Z,27.13
2022-08-24T10:01:15.488Z,27.16
2022-08-24T10:02:15.425Z,27.19
2022-08-24T10:03:15.394Z,27.26
2022-08-24T10:04:15.371Z,27.28
2022-08-24T10:05:15.548Z,27.23
2022-08-24T10:06:15.515Z,27.23
2022-08-24T10:07:15.339Z,27.26
2022-08-24T10:08:15.326Z,27.29
2022-08-24T10:09:15.323Z,27.33
2022-08-24T10:10:15.375Z,27.38
2022-08-24T10:11:15.323Z,27.41
2022-08-24T10:12:15.292Z,27.43
2022-08-24T10:13:15.281Z,27.50
2022-08-24T10:14:15.264Z,27.51
2022-08-24T10:15:15.260Z,27.53
2022-08-24T10:16:15.335Z,27.59
2022-08-24T10:17:15.238Z,27.62
2022-08-24T10:18:15.222Z,27.62
2022-08-24T10:19:15.215Z,27.64
2022-08-24T10:20:15.278Z,27.64
2022-08-24T10:21:15.215Z,27.69
2022-08-24T10:22:15.186Z,27.73
2022-08-24T10:23:15.181Z,27.79
2022-08-24T10:24:15.155Z,27.77
2022-08-24T10:25:15.154Z,27.88
2022-08-24T10:26:15.160Z,27.92
2022-08-24T10:27:15.130Z,27.95
2022-08-24T10:28:15.119Z,27.95
2022-08-24T10:29:15.107Z,27.94
2022-08-24T10:30:15.121Z,27.94
2022-08-24T10:31:15.182Z,28.01
2022-08-24T10:32:15.079Z,28.03
2022-08-24T10:33:15.063Z,28.07
2022-08-24T10:34:15.054Z,28.10
2022-08-24T10:35:15.045Z,28.19
2022-08-24T10:36:15.041Z,28.25
2022-08-24T10:37:15.025Z,28.28
2022-08-24T10:38:15.010Z,28.32
2022-08-24T10:39:15.005Z,28.38
2022-08-24T10:40:15.117Z,28.44
2022-08-24T10:41:15.001Z,28.53
2022-08-24T10:42:14.974Z,28.51
2022-08-24T10:43:14.964Z,28.51
2022-08-24T10:44:14.941Z,28.51
2022-08-24T10:45:14.944Z,28.58
2022-08-24T10:46:15.028Z,28.54
2022-08-24T10:47:14.919Z,28.54
2022-08-24T10:48:14.904Z,28.58
2022-08-24T10:49:14.899Z,28.59
2022-08-24T10:50:14.880Z,28.69
2022-08-24T10:51:14.900Z,28.70
2022-08-24T10:52:14.861Z,28.72
2022-08-24T10:53:14.857Z,28.73
2022-08-24T10:54:14.845Z,28.78
2022-08-24T10:55:14.833Z,28.72
2022-08-24T10:56:14.837Z,28.73
2022-08-24T10:57:15.069Z,28.77
2022-08-24T10:58:14.803Z,28.81
2022-08-24T10:59:14.796Z,28.93
2022-08-24T11:00:22.587Z,29.10
2022-08-24T11:01:14.828Z,29.19
2022-08-24T11:02:14.843Z,29.29
2022-08-24T11:03:14.752Z,29.37
2022-08-24T11:04:14.738Z,29.41
2022-08-24T11:05:14.734Z,29.38
2022-08-24T11:06:14.740Z,29.43
2022-08-24T11:07:14.698Z,29.40
2022-08-24T11:08:14.696Z,29.35
2022-08-24T11:09:19.271Z,29.28
2022-08-24T11:10:14.681Z,29.23
2022-08-24T11:11:14.691Z,29.19
2022-08-24T11:12:14.651Z,29.26
2022-08-24T11:13:14.643Z,29.34
2022-08-24T11:14:14.633Z,29.25
2022-08-24T11:15:14.627Z,29.25
2022-08-24T11:16:14.709Z,29.25
2022-08-24T11:17:14.607Z,29.34
2022-08-24T11:18:14.637Z,29.41
2022-08-24T11:19:14.592Z,29.45
2022-08-24T11:20:14.570Z,29.41
2022-08-24T11:21:14.575Z,29.41
2022-08-24T11:22:14.545Z,29.41
2022-08-24T11:23:14.543Z,29.41
2022-08-24T11:24:14.531Z,29.43
2022-08-24T11:25:14.526Z,29.52
2022-08-24T11:26:14.520Z,29.57
2022-08-24T11:27:14.494Z,29.65
2022-08-24T11:28:14.487Z,29.71
2022-08-24T11:29:14.481Z,29.77
2022-08-24T11:30:14.462Z,29.84
2022-08-24T11:31:14.515Z,29.81
2022-08-24T11:32:14.447Z,29.86
2022-08-24T11:33:14.435Z,29.94
2022-08-24T11:34:14.425Z,29.94
2022-08-24T11:35:14.416Z,29.93
2022-08-24T11:36:14.419Z,29.97
2022-08-24T11:37:14.398Z,30.05
2022-08-24T11:38:14.387Z,30.11
2022-08-24T11:39:14.366Z,30.12
2022-08-24T11:40:14.410Z,30.02
2022-08-24T11:41:14.376Z,29.94
2022-08-24T11:42:14.343Z,29.90
2022-08-24T11:43:14.327Z,29.94
2022-08-24T11:44:14.322Z,29.93
2022-08-24T11:45:14.304Z,29.99
2022-08-24T11:46:14.348Z,30.00
2022-08-24T11:47:14.290Z,30.07
2022-08-24T11:48:14.285Z,30.07
2022-08-24T11:49:14.274Z,30.12
2022-08-24T11:50:14.253Z,30.16
2022-08-24T11:51:14.255Z,30.16
2022-08-24T11:52:14.241Z,30.21
2022-08-24T11:53:14.227Z,30.23
2022-08-24T11:54:14.210Z,30.29
2022-08-24T11:55:14.208Z,30.27
2022-08-24T11:56:15.429Z,30.26
2022-08-24T11:57:14.187Z,30.14
2022-08-24T11:58:14.167Z,30.02
2022-08-24T11:59:14.166Z,29.90
2022-08-24T12:00:14.152Z,29.94
2022-08-24T12:01:14.168Z,29.93
2022-08-24T12:02:14.223Z,29.96
2022-08-24T12:03:14.357Z,29.90
2022-08-24T12:04:14.121Z,29.92
2022-08-24T12:05:14.104Z,29.93
2022-08-24T12:06:14.107Z,30.02
2022-08-24T12:07:14.073Z,30.09
2022-08-24T12:08:14.077Z,30.11
2022-08-24T12:09:14.064Z,30.03
2022-08-24T12:10:14.044Z,30.02
2022-08-24T12:11:14.062Z,30.00
2022-08-24T12:12:14.040Z,29.92
2022-08-24T12:13:14.020Z,29.93
2022-08-24T12:14:14.016Z,29.93
2022-08-24T12:15:14.006Z,29.97
2022-08-24T12:16:14.095Z,30.03
2022-08-24T12:17:13.978Z,30.09
2022-08-24T12:18:13.967Z,30.12
2022-08-24T12:19:13.956Z,30.19
2022-08-24T12:20:13.939Z,30.23
2022-08-24T12:21:13.954Z,30.34
2022-08-24T12:22:13.925Z,30.43
2022-08-24T12:23:13.918Z,30.50
2022-08-24T12:24:13.903Z,30.53
2022-08-24T12:25:13.894Z,30.54
2022-08-24T12:26:13.897Z,30.49
2022-08-24T12:27:13.872Z,30.43
2022-08-24T12:28:13.863Z,30.38
2022-08-24T12:29:13.862Z,30.31
2022-08-24T12:30:13.839Z,30.33
2022-08-24T12:31:13.999Z,30.31
2022-08-24T12:32:13.819Z,30.27
2022-08-24T12:33:13.809Z,30.27
2022-08-24T12:34:13.802Z,30.33
2022-08-24T12:35:13.785Z,30.36
2022-08-24T12:36:13.807Z,30.36
2022-08-24T12:37:16.435Z,30.38
2022-08-24T12:38:13.763Z,30.46
2022-08-24T12:39:13.744Z,30.47
2022-08-24T12:40:13.834Z,30.52
2022-08-24T12:41:17.785Z,30.49
2022-08-24T12:42:17.001Z,30.46
2022-08-24T12:43:13.707Z,30.50
2022-08-24T12:44:13.693Z,30.57
2022-08-24T12:45:13.688Z,30.59
2022-08-24T12:46:13.729Z,30.56
2022-08-24T12:47:13.659Z,30.61
2022-08-24T12:48:13.655Z,30.62
2022-08-24T12:49:13.641Z,30.54
2022-08-24T12:50:13.641Z,30.52
2022-08-24T12:51:13.642Z,30.53
2022-08-24T12:52:13.614Z,30.57
2022-08-24T12:53:14.095Z,30.67
2022-08-24T12:54:13.586Z,30.64